Terminal Aerodrome Forecast
Issued by NWS

Home | Current Version | Previous Version | Text Only | Print | Product List | Glossary On
Versions: 1 2 3 4 5 6 7 8 9 10 11 12 13 14 15 16 17 18 19 20 21 22 23 24 25 26 27 28 29 30 31 32 33 34 35 36
722
FTUS46 KHNX 101720
TAFFAT
TAF
KFAT 101720Z 1018/1118 VRB03KT 1SM BR OVC003
      TEMPO 1019/1021 3SM BR
     FM102100 VRB03KT 4SM HZ SCT005 BKN250
     FM110300 VRB03KT 4SM BR BKN010
     FM110600 VRB03KT 1/2SM FG OVC003=

USA.gov is the U.S. government's official web portal to all federal, state and local government web resources and services.